sensor_id;sensor_type;location;lat;lon;timestamp;P1;durP1;ratioP1;P2;durP2;ratioP2
73428;SDS011;61643;49.564;17.412;2022-10-13T00:01:10;9.30;;;4.33;;
73428;SDS011;61643;49.564;17.412;2022-10-13T00:06:08;10.57;;;4.35;;
73428;SDS011;61643;49.564;17.412;2022-10-13T00:08:34;8.68;;;4.22;;
73428;SDS011;61643;49.564;17.412;2022-10-13T00:11:01;11.40;;;4.43;;
73428;SDS011;61643;49.564;17.412;2022-10-13T00:13:33;7.30;;;3.83;;
73428;SDS011;61643;49.564;17.412;2022-10-13T00:16:00;10.53;;;4.70;;
73428;SDS011;61643;49.564;17.412;2022-10-13T00:20:51;7.87;;;4.60;;
73428;SDS011;61643;49.564;17.412;2022-10-13T00:23:17;9.57;;;4.70;;
73428;SDS011;61643;49.564;17.412;2022-10-13T00:25:43;8.18;;;4.72;;
73428;SDS011;61643;49.564;17.412;2022-10-13T00:28:13;10.88;;;4.43;;
73428;SDS011;61643;49.564;17.412;2022-10-13T00:30:40;9.60;;;4.57;;
73428;SDS011;61643;49.564;17.412;2022-10-13T00:33:07;14.70;;;4.57;;
73428;SDS011;61643;49.564;17.412;2022-10-13T00:35:33;9.30;;;4.10;;
73428;SDS011;61643;49.564;17.412;2022-10-13T00:38:05;8.27;;;4.43;;
73428;SDS011;61643;49.564;17.412;2022-10-13T00:40:30;10.73;;;4.50;;
73428;SDS011;61643;49.564;17.412;2022-10-13T00:42:55;9.10;;;4.60;;
73428;SDS011;61643;49.564;17.412;2022-10-13T00:45:24;13.30;;;4.43;;
73428;SDS011;61643;49.564;17.412;2022-10-13T00:47:54;8.10;;;4.18;;
73428;SDS011;61643;49.564;17.412;2022-10-13T00:50:22;14.00;;;5.25;;
73428;SDS011;61643;49.564;17.412;2022-10-13T00:52:52;9.93;;;4.22;;
73428;SDS011;61643;49.564;17.412;2022-10-13T00:55:20;11.65;;;4.70;;
73428;SDS011;61643;49.564;17.412;2022-10-13T00:57:50;12.02;;;4.85;;
73428;SDS011;61643;49.564;17.412;2022-10-13T01:00:21;12.93;;;5.00;;
73428;SDS011;61643;49.564;17.412;2022-10-13T01:02:47;10.63;;;4.72;;
73428;SDS011;61643;49.564;17.412;2022-10-13T01:05:12;8.93;;;4.43;;
73428;SDS011;61643;49.564;17.412;2022-10-13T01:07:39;9.48;;;4.97;;
73428;SDS011;61643;49.564;17.412;2022-10-13T01:10:04;9.45;;;4.88;;
73428;SDS011;61643;49.564;17.412;2022-10-13T01:26:08;11.75;;;4.13;;
73428;SDS011;61643;49.564;17.412;2022-10-13T01:28:56;8.52;;;4.18;;
73428;SDS011;61643;49.564;17.412;2022-10-13T01:42:09;5.82;;;3.67;;
73428;SDS011;61643;49.564;17.412;2022-10-13T01:44:42;7.63;;;4.43;;
73428;SDS011;61643;49.564;17.412;2022-10-13T01:47:14;7.80;;;3.95;;
73428;SDS011;61643;49.564;17.412;2022-10-13T01:49:40;7.18;;;3.85;;
73428;SDS011;61643;49.564;17.412;2022-10-13T01:52:08;9.07;;;4.20;;
73428;SDS011;61643;49.564;17.412;2022-10-13T01:54:37;7.97;;;3.85;;
73428;SDS011;61643;49.564;17.412;2022-10-13T01:57:03;8.07;;;4.03;;
73428;SDS011;61643;49.564;17.412;2022-10-13T01:59:30;8.38;;;4.13;;
73428;SDS011;61643;49.564;17.412;2022-10-13T02:04:47;7.65;;;4.00;;
73428;SDS011;61643;49.564;17.412;2022-10-13T02:07:26;8.52;;;4.28;;
73428;SDS011;61643;49.564;17.412;2022-10-13T02:18:15;10.13;;;4.38;;
73428;SDS011;61643;49.564;17.412;2022-10-13T02:20:44;8.73;;;4.13;;
73428;SDS011;61643;49.564;17.412;2022-10-13T02:23:11;7.45;;;4.30;;
73428;SDS011;61643;49.564;17.412;2022-10-13T02:25:39;10.00;;;4.18;;
73428;SDS011;61643;49.564;17.412;2022-10-13T02:28:05;7.97;;;3.90;;
73428;SDS011;61643;49.564;17.412;2022-10-13T02:30:32;9.82;;;4.05;;
73428;SDS011;61643;49.564;17.412;2022-10-13T02:32:58;6.90;;;4.00;;
73428;SDS011;61643;49.564;17.412;2022-10-13T02:35:24;7.28;;;3.83;;
73428;SDS011;61643;49.564;17.412;2022-10-13T02:37:50;8.65;;;4.05;;
73428;SDS011;61643;49.564;17.412;2022-10-13T02:40:15;8.02;;;4.13;;
73428;SDS011;61643;49.564;17.412;2022-10-13T02:42:41;7.18;;;4.15;;
73428;SDS011;61643;49.564;17.412;2022-10-13T02:45:06;6.33;;;3.73;;
73428;SDS011;61643;49.564;17.412;2022-10-13T02:47:32;7.30;;;4.03;;
73428;SDS011;61643;49.564;17.412;2022-10-13T02:49:58;7.60;;;3.90;;
73428;SDS011;61643;49.564;17.412;2022-10-13T02:52:23;6.60;;;4.03;;
73428;SDS011;61643;49.564;17.412;2022-10-13T02:54:48;7.70;;;3.93;;
73428;SDS011;61643;49.564;17.412;2022-10-13T02:57:14;10.77;;;3.80;;
73428;SDS011;61643;49.564;17.412;2022-10-13T02:59:39;8.40;;;4.43;;
73428;SDS011;61643;49.564;17.412;2022-10-13T03:02:05;9.80;;;4.30;;
73428;SDS011;61643;49.564;17.412;2022-10-13T03:04:30;7.38;;;4.22;;
73428;SDS011;61643;49.564;17.412;2022-10-13T03:06:55;11.35;;;4.53;;
73428;SDS011;61643;49.564;17.412;2022-10-13T03:09:21;7.10;;;3.93;;
73428;SDS011;61643;49.564;17.412;2022-10-13T03:11:46;10.18;;;4.45;;
73428;SDS011;61643;49.564;17.412;2022-10-13T03:14:11;9.87;;;3.97;;
73428;SDS011;61643;49.564;17.412;2022-10-13T03:16:37;8.98;;;4.30;;
73428;SDS011;61643;49.564;17.412;2022-10-13T03:19:02;7.50;;;4.70;;
73428;SDS011;61643;49.564;17.412;2022-10-13T03:21:28;10.10;;;4.55;;
73428;SDS011;61643;49.564;17.412;2022-10-13T03:23:54;10.30;;;4.97;;
73428;SDS011;61643;49.564;17.412;2022-10-13T03:26:19;11.03;;;4.37;;
73428;SDS011;61643;49.564;17.412;2022-10-13T03:28:51;8.55;;;4.50;;
73428;SDS011;61643;49.564;17.412;2022-10-13T03:31:17;10.60;;;4.70;;
73428;SDS011;61643;49.564;17.412;2022-10-13T03:33:43;10.93;;;4.05;;
73428;SDS011;61643;49.564;17.412;2022-10-13T03:36:09;12.73;;;4.22;;
73428;SDS011;61643;49.564;17.412;2022-10-13T03:38:37;12.55;;;5.28;;
73428;SDS011;61643;49.564;17.412;2022-10-13T03:41:04;9.45;;;4.63;;
73428;SDS011;61643;49.564;17.412;2022-10-13T03:43:30;10.98;;;4.90;;
73428;SDS011;61643;49.564;17.412;2022-10-13T03:45:56;11.02;;;4.40;;
73428;SDS011;61643;49.564;17.412;2022-10-13T03:48:23;7.10;;;3.85;;
73428;SDS011;61643;49.564;17.412;2022-10-13T03:50:48;8.95;;;4.85;;
73428;SDS011;61643;49.564;17.412;2022-10-13T03:53:14;9.43;;;5.03;;
73428;SDS011;61643;49.564;17.412;2022-10-13T03:55:40;11.88;;;5.00;;
73428;SDS011;61643;49.564;17.412;2022-10-13T03:58:06;9.83;;;4.90;;
73428;SDS011;61643;49.564;17.412;2022-10-13T04:00:33;7.67;;;4.43;;
73428;SDS011;61643;49.564;17.412;2022-10-13T04:03:00;9.02;;;5.00;;
73428;SDS011;61643;49.564;17.412;2022-10-13T04:05:25;8.23;;;4.33;;
73428;SDS011;61643;49.564;17.412;2022-10-13T04:07:50;7.60;;;4.57;;
73428;SDS011;61643;49.564;17.412;2022-10-13T04:10:16;8.57;;;4.60;;
73428;SDS011;61643;49.564;17.412;2022-10-13T04:12:41;10.40;;;4.85;;
73428;SDS011;61643;49.564;17.412;2022-10-13T04:15:07;9.68;;;4.38;;
73428;SDS011;61643;49.564;17.412;2022-10-13T04:17:33;8.48;;;4.75;;
73428;SDS011;61643;49.564;17.412;2022-10-13T04:19:58;10.07;;;5.17;;
73428;SDS011;61643;49.564;17.412;2022-10-13T04:22:23;13.10;;;5.23;;
73428;SDS011;61643;49.564;17.412;2022-10-13T04:24:49;8.03;;;4.37;;
73428;SDS011;61643;49.564;17.412;2022-10-13T04:27:14;7.60;;;4.00;;
73428;SDS011;61643;49.564;17.412;2022-10-13T04:29:41;9.27;;;4.78;;
73428;SDS011;61643;49.564;17.412;2022-10-13T04:32:06;10.50;;;4.68;;
73428;SDS011;61643;49.564;17.412;2022-10-13T04:34:31;14.17;;;4.07;;
73428;SDS011;61643;49.564;17.412;2022-10-13T04:36:57;9.80;;;4.00;;
73428;SDS011;61643;49.564;17.412;2022-10-13T04:39:22;7.65;;;3.97;;
73428;SDS011;61643;49.564;17.412;2022-10-13T04:41:48;8.85;;;4.13;;
73428;SDS011;61643;49.564;17.412;2022-10-13T04:44:14;12.43;;;3.90;;
73428;SDS011;61643;49.564;17.412;2022-10-13T04:46:40;6.35;;;3.80;;
73428;SDS011;61643;49.564;17.412;2022-10-13T04:49:05;7.65;;;4.07;;
73428;SDS011;61643;49.564;17.412;2022-10-13T04:51:31;8.68;;;4.22;;
73428;SDS011;61643;49.564;17.412;2022-10-13T04:53:57;8.88;;;4.53;;
73428;SDS011;61643;49.564;17.412;2022-10-13T04:56:25;8.88;;;4.43;;
73428;SDS011;61643;49.564;17.412;2022-10-13T04:58:51;6.97;;;4.13;;
73428;SDS011;61643;49.564;17.412;2022-10-13T05:01:18;7.85;;;4.40;;
73428;SDS011;61643;49.564;17.412;2022-10-13T05:03:45;9.45;;;4.50;;
73428;SDS011;61643;49.564;17.412;2022-10-13T05:06:17;8.43;;;4.03;;
73428;SDS011;61643;49.564;17.412;2022-10-13T05:08:45;7.55;;;4.50;;
73428;SDS011;61643;49.564;17.412;2022-10-13T05:11:10;7.45;;;3.67;;
73428;SDS011;61643;49.564;17.412;2022-10-13T05:13:36;14.73;;;4.37;;
73428;SDS011;61643;49.564;17.412;2022-10-13T05:16:04;10.45;;;4.20;;
73428;SDS011;61643;49.564;17.412;2022-10-13T05:18:31;7.78;;;4.32;;
73428;SDS011;61643;49.564;17.412;2022-10-13T05:21:04;8.60;;;4.60;;
73428;SDS011;61643;49.564;17.412;2022-10-13T05:23:34;10.10;;;4.93;;
73428;SDS011;61643;49.564;17.412;2022-10-13T05:26:01;11.57;;;4.50;;
73428;SDS011;61643;49.564;17.412;2022-10-13T05:28:30;10.57;;;4.53;;
73428;SDS011;61643;49.564;17.412;2022-10-13T05:30:55;8.90;;;4.85;;
73428;SDS011;61643;49.564;17.412;2022-10-13T05:33:21;10.70;;;4.53;;
73428;SDS011;61643;49.564;17.412;2022-10-13T05:35:46;13.17;;;6.30;;
73428;SDS011;61643;49.564;17.412;2022-10-13T05:38:12;12.17;;;6.17;;
73428;SDS011;61643;49.564;17.412;2022-10-13T05:40:37;10.03;;;4.77;;
73428;SDS011;61643;49.564;17.412;2022-10-13T05:43:02;10.20;;;5.30;;
73428;SDS011;61643;49.564;17.412;2022-10-13T05:45:28;12.20;;;5.37;;
73428;SDS011;61643;49.564;17.412;2022-10-13T05:47:57;9.75;;;4.90;;
73428;SDS011;61643;49.564;17.412;2022-10-13T05:50:22;8.67;;;4.60;;
73428;SDS011;61643;49.564;17.412;2022-10-13T05:52:48;9.85;;;3.92;;
73428;SDS011;61643;49.564;17.412;2022-10-13T05:55:14;8.18;;;4.38;;
73428;SDS011;61643;49.564;17.412;2022-10-13T05:57:43;8.95;;;4.50;;
73428;SDS011;61643;49.564;17.412;2022-10-13T06:00:13;13.00;;;5.60;;
73428;SDS011;61643;49.564;17.412;2022-10-13T06:02:41;16.25;;;6.72;;
73428;SDS011;61643;49.564;17.412;2022-10-13T06:05:16;13.38;;;6.82;;
73428;SDS011;61643;49.564;17.412;2022-10-13T06:07:44;18.15;;;8.15;;
73428;SDS011;61643;49.564;17.412;2022-10-13T06:10:14;12.25;;;6.75;;
73428;SDS011;61643;49.564;17.412;2022-10-13T06:12:41;15.20;;;4.88;;
73428;SDS011;61643;49.564;17.412;2022-10-13T06:15:07;10.25;;;4.40;;
73428;SDS011;61643;49.564;17.412;2022-10-13T06:17:37;9.00;;;3.90;;
73428;SDS011;61643;49.564;17.412;2022-10-13T06:20:04;13.55;;;4.55;;
73428;SDS011;61643;49.564;17.412;2022-10-13T06:22:32;13.18;;;4.45;;
73428;SDS011;61643;49.564;17.412;2022-10-13T06:24:59;13.63;;;6.57;;
73428;SDS011;61643;49.564;17.412;2022-10-13T06:27:25;18.10;;;6.20;;
73428;SDS011;61643;49.564;17.412;2022-10-13T06:29:53;13.02;;;5.15;;
73428;SDS011;61643;49.564;17.412;2022-10-13T06:32:19;12.45;;;5.25;;
73428;SDS011;61643;49.564;17.412;2022-10-13T06:34:52;9.55;;;5.03;;
73428;SDS011;61643;49.564;17.412;2022-10-13T06:37:26;8.85;;;5.07;;
73428;SDS011;61643;49.564;17.412;2022-10-13T06:39:58;10.82;;;5.03;;
73428;SDS011;61643;49.564;17.412;2022-10-13T06:42:24;10.27;;;5.15;;
73428;SDS011;61643;49.564;17.412;2022-10-13T06:44:51;9.10;;;4.45;;
73428;SDS011;61643;49.564;17.412;2022-10-13T06:47:16;9.20;;;5.00;;
73428;SDS011;61643;49.564;17.412;2022-10-13T06:49:41;8.43;;;4.07;;
73428;SDS011;61643;49.564;17.412;2022-10-13T06:52:07;7.65;;;4.35;;
73428;SDS011;61643;49.564;17.412;2022-10-13T06:54:32;8.02;;;4.38;;
73428;SDS011;61643;49.564;17.412;2022-10-13T06:56:58;9.65;;;5.10;;
73428;SDS011;61643;49.564;17.412;2022-10-13T06:59:23;9.40;;;4.35;;
73428;SDS011;61643;49.564;17.412;2022-10-13T07:01:51;6.35;;;3.92;;
73428;SDS011;61643;49.564;17.412;2022-10-13T07:04:17;10.85;;;4.60;;
73428;SDS011;61643;49.564;17.412;2022-10-13T07:06:43;9.18;;;4.53;;
73428;SDS011;61643;49.564;17.412;2022-10-13T07:09:09;7.67;;;4.47;;
73428;SDS011;61643;49.564;17.412;2022-10-13T07:11:34;7.93;;;4.40;;
73428;SDS011;61643;49.564;17.412;2022-10-13T07:14:00;9.35;;;4.45;;
73428;SDS011;61643;49.564;17.412;2022-10-13T07:16:26;10.27;;;4.22;;
73428;SDS011;61643;49.564;17.412;2022-10-13T07:18:51;6.80;;;3.97;;
73428;SDS011;61643;49.564;17.412;2022-10-13T07:21:17;8.77;;;4.13;;
73428;SDS011;61643;49.564;17.412;2022-10-13T07:23:42;13.88;;;4.88;;
73428;SDS011;61643;49.564;17.412;2022-10-13T07:26:09;7.55;;;4.80;;
73428;SDS011;61643;49.564;17.412;2022-10-13T07:28:37;9.45;;;5.03;;
73428;SDS011;61643;49.564;17.412;2022-10-13T07:31:07;9.88;;;4.32;;
73428;SDS011;61643;49.564;17.412;2022-10-13T07:33:35;7.90;;;4.15;;
73428;SDS011;61643;49.564;17.412;2022-10-13T07:36:01;8.30;;;4.38;;
73428;SDS011;61643;49.564;17.412;2022-10-13T07:38:27;8.00;;;4.15;;
73428;SDS011;61643;49.564;17.412;2022-10-13T07:40:52;11.03;;;4.40;;
73428;SDS011;61643;49.564;17.412;2022-10-13T07:43:18;7.40;;;4.40;;
73428;SDS011;61643;49.564;17.412;2022-10-13T07:45:43;8.23;;;4.30;;
73428;SDS011;61643;49.564;17.412;2022-10-13T07:48:10;8.05;;;4.40;;
73428;SDS011;61643;49.564;17.412;2022-10-13T07:50:36;11.35;;;4.90;;
73428;SDS011;61643;49.564;17.412;2022-10-13T07:53:01;10.70;;;4.35;;
73428;SDS011;61643;49.564;17.412;2022-10-13T07:55:27;8.03;;;4.13;;
73428;SDS011;61643;49.564;17.412;2022-10-13T07:57:52;9.00;;;4.47;;
73428;SDS011;61643;49.564;17.412;2022-10-13T08:00:18;9.60;;;4.65;;
73428;SDS011;61643;49.564;17.412;2022-10-13T08:02:43;12.70;;;5.00;;
73428;SDS011;61643;49.564;17.412;2022-10-13T08:05:08;9.03;;;4.87;;
73428;SDS011;61643;49.564;17.412;2022-10-13T08:07:34;11.25;;;4.80;;
73428;SDS011;61643;49.564;17.412;2022-10-13T08:10:01;11.15;;;4.82;;
73428;SDS011;61643;49.564;17.412;2022-10-13T08:12:28;8.90;;;4.72;;
73428;SDS011;61643;49.564;17.412;2022-10-13T08:14:53;12.90;;;4.93;;
73428;SDS011;61643;49.564;17.412;2022-10-13T08:17:18;15.03;;;5.43;;
73428;SDS011;61643;49.564;17.412;2022-10-13T08:19:44;11.27;;;5.40;;
73428;SDS011;61643;49.564;17.412;2022-10-13T08:22:09;13.93;;;5.50;;
73428;SDS011;61643;49.564;17.412;2022-10-13T08:24:36;8.38;;;4.97;;
73428;SDS011;61643;49.564;17.412;2022-10-13T08:27:01;13.20;;;5.82;;
73428;SDS011;61643;49.564;17.412;2022-10-13T08:29:27;9.23;;;4.90;;
73428;SDS011;61643;49.564;17.412;2022-10-13T08:31:52;9.90;;;4.37;;
73428;SDS011;61643;49.564;17.412;2022-10-13T08:34:18;10.07;;;5.20;;
73428;SDS011;61643;49.564;17.412;2022-10-13T08:36:44;11.35;;;4.97;;
73428;SDS011;61643;49.564;17.412;2022-10-13T08:39:10;9.02;;;4.93;;
73428;SDS011;61643;49.564;17.412;2022-10-13T08:41:37;11.30;;;5.00;;
73428;SDS011;61643;49.564;17.412;2022-10-13T08:44:06;7.70;;;4.30;;
73428;SDS011;61643;49.564;17.412;2022-10-13T08:46:46;9.05;;;4.22;;
73428;SDS011;61643;49.564;17.412;2022-10-13T08:49:19;10.07;;;4.68;;
73428;SDS011;61643;49.564;17.412;2022-10-13T08:51:45;9.87;;;5.27;;
73428;SDS011;61643;49.564;17.412;2022-10-13T08:54:12;9.63;;;4.97;;
73428;SDS011;61643;49.564;17.412;2022-10-13T08:56:40;9.27;;;4.80;;
73428;SDS011;61643;49.564;17.412;2022-10-13T08:59:08;12.85;;;5.22;;
73428;SDS011;61643;49.564;17.412;2022-10-13T09:01:38;11.52;;;4.82;;
73428;SDS011;61643;49.564;17.412;2022-10-13T09:04:12;12.10;;;5.55;;
73428;SDS011;61643;49.564;17.412;2022-10-13T09:06:52;10.93;;;4.97;;
73428;SDS011;61643;49.564;17.412;2022-10-13T09:09:34;11.35;;;4.88;;
73428;SDS011;61643;49.564;17.412;2022-10-13T09:12:00;8.73;;;5.68;;
73428;SDS011;61643;49.564;17.412;2022-10-13T09:16:53;12.40;;;5.32;;
73428;SDS011;61643;49.564;17.412;2022-10-13T09:19:27;17.88;;;7.25;;
73428;SDS011;61643;49.564;17.412;2022-10-13T09:33:13;15.38;;;8.38;;
73428;SDS011;61643;49.564;17.412;2022-10-13T09:38:13;20.02;;;9.70;;
73428;SDS011;61643;49.564;17.412;2022-10-13T09:48:26;19.77;;;7.80;;
73428;SDS011;61643;49.564;17.412;2022-10-13T09:50:56;16.27;;;7.78;;
73428;SDS011;61643;49.564;17.412;2022-10-13T09:58:51;17.25;;;8.20;;
73428;SDS011;61643;49.564;17.412;2022-10-13T10:01:27;17.55;;;9.02;;
73428;SDS011;61643;49.564;17.412;2022-10-13T10:03:58;18.77;;;9.18;;
73428;SDS011;61643;49.564;17.412;2022-10-13T10:06:27;16.33;;;8.07;;
73428;SDS011;61643;49.564;17.412;2022-10-13T10:09:02;16.53;;;8.00;;
73428;SDS011;61643;49.564;17.412;2022-10-13T10:11:46;17.02;;;7.85;;
73428;SDS011;61643;49.564;17.412;2022-10-13T10:14:32;17.67;;;9.40;;
73428;SDS011;61643;49.564;17.412;2022-10-13T10:17:19;22.30;;;9.45;;
73428;SDS011;61643;49.564;17.412;2022-10-13T10:19:57;22.55;;;9.20;;
73428;SDS011;61643;49.564;17.412;2022-10-13T10:22:47;14.50;;;8.00;;
73428;SDS011;61643;49.564;17.412;2022-10-13T10:31:01;18.98;;;9.48;;
73428;SDS011;61643;49.564;17.412;2022-10-13T10:36:21;18.35;;;8.93;;
73428;SDS011;61643;49.564;17.412;2022-10-13T10:38:59;20.02;;;9.40;;
73428;SDS011;61643;49.564;17.412;2022-10-13T10:44:41;19.30;;;9.35;;
73428;SDS011;61643;49.564;17.412;2022-10-13T10:49:59;19.25;;;8.63;;
73428;SDS011;61643;49.564;17.412;2022-10-13T10:53:14;14.93;;;8.85;;
73428;SDS011;61643;49.564;17.412;2022-10-13T11:00:27;16.63;;;9.07;;
73428;SDS011;61643;49.564;17.412;2022-10-13T11:05:23;22.85;;;10.80;;
73428;SDS011;61643;49.564;17.412;2022-10-13T11:12:47;22.10;;;9.63;;
73428;SDS011;61643;49.564;17.412;2022-10-13T11:15:45;18.25;;;9.32;;
73428;SDS011;61643;49.564;17.412;2022-10-13T11:21:14;21.02;;;9.45;;
73428;SDS011;61643;49.564;17.412;2022-10-13T11:23:43;19.45;;;10.60;;
73428;SDS011;61643;49.564;17.412;2022-10-13T11:26:39;21.63;;;9.32;;
73428;SDS011;61643;49.564;17.412;2022-10-13T11:29:14;23.40;;;10.38;;
73428;SDS011;61643;49.564;17.412;2022-10-13T11:31:49;20.58;;;10.63;;
73428;SDS011;61643;49.564;17.412;2022-10-13T11:34:30;23.33;;;10.25;;
73428;SDS011;61643;49.564;17.412;2022-10-13T11:37:00;18.27;;;9.60;;
73428;SDS011;61643;49.564;17.412;2022-10-13T11:41:57;18.13;;;9.32;;
73428;SDS011;61643;49.564;17.412;2022-10-13T11:55:12;19.58;;;10.95;;
73428;SDS011;61643;49.564;17.412;2022-10-13T11:57:42;23.27;;;11.23;;
73428;SDS011;61643;49.564;17.412;2022-10-13T12:00:15;33.70;;;16.83;;
73428;SDS011;61643;49.564;17.412;2022-10-13T12:02:46;27.77;;;14.10;;
73428;SDS011;61643;49.564;17.412;2022-10-13T12:07:45;26.05;;;13.63;;
73428;SDS011;61643;49.564;17.412;2022-10-13T12:10:16;26.00;;;13.27;;
73428;SDS011;61643;49.564;17.412;2022-10-13T12:13:03;25.95;;;13.07;;
73428;SDS011;61643;49.564;17.412;2022-10-13T12:17:54;24.37;;;13.60;;
73428;SDS011;61643;49.564;17.412;2022-10-13T12:20:24;28.92;;;12.93;;
73428;SDS011;61643;49.564;17.412;2022-10-13T12:22:52;23.48;;;13.30;;
73428;SDS011;61643;49.564;17.412;2022-10-13T12:25:19;29.25;;;15.30;;
73428;SDS011;61643;49.564;17.412;2022-10-13T12:27:47;32.33;;;13.90;;
73428;SDS011;61643;49.564;17.412;2022-10-13T12:30:22;29.13;;;13.98;;
73428;SDS011;61643;49.564;17.412;2022-10-13T12:32:53;27.58;;;13.68;;
73428;SDS011;61643;49.564;17.412;2022-10-13T12:37:52;28.33;;;13.63;;
73428;SDS011;61643;49.564;17.412;2022-10-13T12:40:18;31.05;;;14.50;;
73428;SDS011;61643;49.564;17.412;2022-10-13T12:42:45;27.15;;;14.18;;
73428;SDS011;61643;49.564;17.412;2022-10-13T12:45:16;23.83;;;12.70;;
73428;SDS011;61643;49.564;17.412;2022-10-13T12:47:48;26.20;;;13.70;;
73428;SDS011;61643;49.564;17.412;2022-10-13T12:52:50;22.92;;;11.68;;
73428;SDS011;61643;49.564;17.412;2022-10-13T12:55:18;23.10;;;12.10;;
73428;SDS011;61643;49.564;17.412;2022-10-13T12:57:45;27.52;;;13.38;;
73428;SDS011;61643;49.564;17.412;2022-10-13T13:00:22;26.35;;;13.77;;
73428;SDS011;61643;49.564;17.412;2022-10-13T13:02:56;27.73;;;13.55;;
73428;SDS011;61643;49.564;17.412;2022-10-13T13:07:58;25.48;;;12.35;;
73428;SDS011;61643;49.564;17.412;2022-10-13T13:10:24;27.63;;;13.88;;
73428;SDS011;61643;49.564;17.412;2022-10-13T13:12:50;23.40;;;12.75;;
73428;SDS011;61643;49.564;17.412;2022-10-13T13:17:49;24.98;;;12.45;;
73428;SDS011;61643;49.564;17.412;2022-10-13T13:20:48;22.65;;;12.40;;
73428;SDS011;61643;49.564;17.412;2022-10-13T13:23:07;24.73;;;12.80;;
73428;SDS011;61643;49.564;17.412;2022-10-13T13:25:32;26.70;;;14.33;;
73428;SDS011;61643;49.564;17.412;2022-10-13T13:27:57;29.33;;;14.17;;
73428;SDS011;61643;49.564;17.412;2022-10-13T13:30:23;25.40;;;14.30;;
73428;SDS011;61643;49.564;17.412;2022-10-13T13:32:48;30.23;;;14.18;;
73428;SDS011;61643;49.564;17.412;2022-10-13T13:35:14;28.38;;;14.00;;
73428;SDS011;61643;49.564;17.412;2022-10-13T13:40:16;29.30;;;14.00;;
73428;SDS011;61643;49.564;17.412;2022-10-13T13:45:17;23.10;;;11.87;;
73428;SDS011;61643;49.564;17.412;2022-10-13T13:47:48;28.13;;;14.75;;
73428;SDS011;61643;49.564;17.412;2022-10-13T13:50:19;24.00;;;12.88;;
73428;SDS011;61643;49.564;17.412;2022-10-13T13:52:47;28.33;;;14.20;;
73428;SDS011;61643;49.564;17.412;2022-10-13T13:55:13;26.30;;;13.70;;
73428;SDS011;61643;49.564;17.412;2022-10-13T13:57:38;27.85;;;13.70;;
73428;SDS011;61643;49.564;17.412;2022-10-13T14:00:04;27.85;;;14.52;;
73428;SDS011;61643;49.564;17.412;2022-10-13T14:02:30;29.77;;;14.43;;
73428;SDS011;61643;49.564;17.412;2022-10-13T14:04:56;52.47;;;23.63;;
73428;SDS011;61643;49.564;17.412;2022-10-13T14:07:21;29.07;;;15.50;;
73428;SDS011;61643;49.564;17.412;2022-10-13T14:09:46;31.80;;;14.60;;
73428;SDS011;61643;49.564;17.412;2022-10-13T14:12:12;31.00;;;15.13;;
73428;SDS011;61643;49.564;17.412;2022-10-13T14:14:37;30.93;;;14.77;;
73428;SDS011;61643;49.564;17.412;2022-10-13T14:17:03;103.25;;;30.70;;
73428;SDS011;61643;49.564;17.412;2022-10-13T14:19:29;82.20;;;26.98;;
73428;SDS011;61643;49.564;17.412;2022-10-13T14:21:55;58.20;;;22.30;;
73428;SDS011;61643;49.564;17.412;2022-10-13T14:24:21;37.27;;;16.37;;
73428;SDS011;61643;49.564;17.412;2022-10-13T14:26:46;105.97;;;27.23;;
73428;SDS011;61643;49.564;17.412;2022-10-13T14:29:11;85.03;;;27.70;;
73428;SDS011;61643;49.564;17.412;2022-10-13T14:31:37;51.00;;;20.02;;
73428;SDS011;61643;49.564;17.412;2022-10-13T14:34:03;201.10;;;56.78;;
73428;SDS011;61643;49.564;17.412;2022-10-13T14:36:28;107.25;;;35.20;;
73428;SDS011;61643;49.564;17.412;2022-10-13T14:38:54;34.90;;;18.07;;
73428;SDS011;61643;49.564;17.412;2022-10-13T14:41:20;54.28;;;21.58;;
73428;SDS011;61643;49.564;17.412;2022-10-13T14:43:45;42.90;;;19.00;;
73428;SDS011;61643;49.564;17.412;2022-10-13T14:46:11;34.07;;;16.07;;
73428;SDS011;61643;49.564;17.412;2022-10-13T14:48:37;32.92;;;16.60;;
73428;SDS011;61643;49.564;17.412;2022-10-13T14:51:05;37.95;;;16.60;;
73428;SDS011;61643;49.564;17.412;2022-10-13T14:53:33;32.70;;;15.75;;
73428;SDS011;61643;49.564;17.412;2022-10-13T14:56:02;41.95;;;20.50;;
73428;SDS011;61643;49.564;17.412;2022-10-13T14:58:36;55.28;;;23.88;;
73428;SDS011;61643;49.564;17.412;2022-10-13T15:01:02;55.47;;;23.20;;
73428;SDS011;61643;49.564;17.412;2022-10-13T15:03:27;47.50;;;20.98;;
73428;SDS011;61643;49.564;17.412;2022-10-13T15:05:52;45.03;;;18.87;;
73428;SDS011;61643;49.564;17.412;2022-10-13T15:08:18;42.80;;;19.25;;
73428;SDS011;61643;49.564;17.412;2022-10-13T15:10:43;38.47;;;20.10;;
73428;SDS011;61643;49.564;17.412;2022-10-13T15:13:09;43.87;;;22.13;;
73428;SDS011;61643;49.564;17.412;2022-10-13T15:15:34;46.15;;;20.65;;
73428;SDS011;61643;49.564;17.412;2022-10-13T15:18:00;38.27;;;18.53;;
73428;SDS011;61643;49.564;17.412;2022-10-13T15:20:25;39.17;;;19.27;;
73428;SDS011;61643;49.564;17.412;2022-10-13T15:22:50;35.03;;;19.70;;
73428;SDS011;61643;49.564;17.412;2022-10-13T15:25:18;38.90;;;19.67;;
73428;SDS011;61643;49.564;17.412;2022-10-13T15:27:43;36.20;;;18.07;;
73428;SDS011;61643;49.564;17.412;2022-10-13T15:30:09;43.13;;;21.53;;
73428;SDS011;61643;49.564;17.412;2022-10-13T15:32:34;39.55;;;19.83;;
73428;SDS011;61643;49.564;17.412;2022-10-13T15:35:00;37.63;;;19.10;;
73428;SDS011;61643;49.564;17.412;2022-10-13T15:37:25;39.00;;;19.38;;
73428;SDS011;61643;49.564;17.412;2022-10-13T15:39:51;35.67;;;18.27;;
73428;SDS011;61643;49.564;17.412;2022-10-13T15:42:16;39.47;;;19.53;;
73428;SDS011;61643;49.564;17.412;2022-10-13T15:44:41;39.10;;;20.73;;
73428;SDS011;61643;49.564;17.412;2022-10-13T15:47:07;36.23;;;18.90;;
73428;SDS011;61643;49.564;17.412;2022-10-13T15:49:33;36.13;;;18.20;;
73428;SDS011;61643;49.564;17.412;2022-10-13T15:52:03;35.92;;;17.95;;
73428;SDS011;61643;49.564;17.412;2022-10-13T15:54:28;34.70;;;18.52;;
73428;SDS011;61643;49.564;17.412;2022-10-13T15:56:54;35.03;;;16.97;;
73428;SDS011;61643;49.564;17.412;2022-10-13T15:59:19;32.23;;;16.60;;
73428;SDS011;61643;49.564;17.412;2022-10-13T16:01:44;35.80;;;17.73;;
73428;SDS011;61643;49.564;17.412;2022-10-13T16:04:10;31.57;;;16.20;;
73428;SDS011;61643;49.564;17.412;2022-10-13T16:06:35;36.25;;;16.30;;
73428;SDS011;61643;49.564;17.412;2022-10-13T16:09:02;37.45;;;17.77;;
73428;SDS011;61643;49.564;17.412;2022-10-13T16:11:27;34.28;;;16.63;;
73428;SDS011;61643;49.564;17.412;2022-10-13T16:13:53;33.97;;;16.23;;
73428;SDS011;61643;49.564;17.412;2022-10-13T16:16:18;31.85;;;17.60;;
73428;SDS011;61643;49.564;17.412;2022-10-13T16:18:45;36.25;;;16.77;;
73428;SDS011;61643;49.564;17.412;2022-10-13T16:21:14;34.22;;;16.65;;
73428;SDS011;61643;49.564;17.412;2022-10-13T16:23:42;42.45;;;19.13;;
73428;SDS011;61643;49.564;17.412;2022-10-13T16:26:08;112.78;;;38.60;;
73428;SDS011;61643;49.564;17.412;2022-10-13T16:28:34;93.63;;;34.17;;
73428;SDS011;61643;49.564;17.412;2022-10-13T16:31:04;118.57;;;40.67;;
73428;SDS011;61643;49.564;17.412;2022-10-13T16:33:37;70.50;;;26.95;;
73428;SDS011;61643;49.564;17.412;2022-10-13T16:36:08;69.35;;;27.50;;
73428;SDS011;61643;49.564;17.412;2022-10-13T16:38:35;54.58;;;22.20;;